sensor_id;sensor_type;location;lat;lon;timestamp;P1;durP1;ratioP1;P2;durP2;ratioP2
45764;SDS011;31474;45.332;10.230;2024-03-23T00:52:45;5.80;;;4.35;;
45764;SDS011;31474;45.332;10.230;2024-03-23T00:55:11;4.93;;;4.43;;
45764;SDS011;31474;45.332;10.230;2024-03-23T00:57:37;4.68;;;4.28;;
45764;SDS011;31474;45.332;10.230;2024-03-23T01:00:02;5.25;;;4.72;;
45764;SDS011;31474;45.332;10.230;2024-03-23T01:02:30;5.22;;;4.68;;
45764;SDS011;31474;45.332;10.230;2024-03-23T01:04:59;4.75;;;4.25;;
45764;SDS011;31474;45.332;10.230;2024-03-23T01:07:24;4.32;;;3.92;;
45764;SDS011;31474;45.332;10.230;2024-03-23T01:09:50;4.72;;;4.32;;
45764;SDS011;31474;45.332;10.230;2024-03-23T01:12:17;5.15;;;4.53;;
45764;SDS011;31474;45.332;10.230;2024-03-23T01:14:42;4.65;;;4.25;;
45764;SDS011;31474;45.332;10.230;2024-03-23T01:17:08;4.88;;;4.20;;
45764;SDS011;31474;45.332;10.230;2024-03-23T01:19:33;4.32;;;3.92;;
45764;SDS011;31474;45.332;10.230;2024-03-23T01:21:59;5.68;;;5.18;;
45764;SDS011;31474;45.332;10.230;2024-03-23T01:24:25;5.10;;;4.45;;
45764;SDS011;31474;45.332;10.230;2024-03-23T01:26:50;4.47;;;4.07;;
45764;SDS011;31474;45.332;10.230;2024-03-23T01:29:16;4.47;;;4.07;;
45764;SDS011;31474;45.332;10.230;2024-03-23T01:31:42;4.47;;;4.07;;
45764;SDS011;31474;45.332;10.230;2024-03-23T01:34:07;4.55;;;4.15;;
45764;SDS011;31474;45.332;10.230;2024-03-23T01:36:33;4.45;;;4.03;;
45764;SDS011;31474;45.332;10.230;2024-03-23T01:38:58;5.15;;;4.32;;
45764;SDS011;31474;45.332;10.230;2024-03-23T01:41:24;4.88;;;4.38;;
45764;SDS011;31474;45.332;10.230;2024-03-23T01:43:50;4.55;;;4.15;;
45764;SDS011;31474;45.332;10.230;2024-03-23T01:46:16;6.20;;;4.43;;
45764;SDS011;31474;45.332;10.230;2024-03-23T01:48:42;5.13;;;4.38;;
45764;SDS011;31474;45.332;10.230;2024-03-23T01:51:07;5.28;;;4.75;;
45764;SDS011;31474;45.332;10.230;2024-03-23T01:53:33;5.15;;;4.68;;
45764;SDS011;31474;45.332;10.230;2024-03-23T01:55:59;5.55;;;5.05;;
45764;SDS011;31474;45.332;10.230;2024-03-23T01:58:25;4.90;;;4.50;;
45764;SDS011;31474;45.332;10.230;2024-03-23T02:00:50;4.93;;;4.50;;
45764;SDS011;31474;45.332;10.230;2024-03-23T02:03:25;4.70;;;4.25;;
45764;SDS011;31474;45.332;10.230;2024-03-23T02:05:52;4.43;;;3.90;;
45764;SDS011;31474;45.332;10.230;2024-03-23T02:08:18;4.63;;;4.22;;
45764;SDS011;31474;45.332;10.230;2024-03-23T02:10:45;5.45;;;4.43;;
45764;SDS011;31474;45.332;10.230;2024-03-23T02:13:11;5.68;;;4.22;;
45764;SDS011;31474;45.332;10.230;2024-03-23T02:15:39;5.35;;;4.80;;
45764;SDS011;31474;45.332;10.230;2024-03-23T02:18:04;4.82;;;3.95;;
45764;SDS011;31474;45.332;10.230;2024-03-23T02:20:32;5.00;;;4.53;;
45764;SDS011;31474;45.332;10.230;2024-03-23T02:22:57;4.57;;;4.18;;
45764;SDS011;31474;45.332;10.230;2024-03-23T02:25:23;4.82;;;4.15;;
45764;SDS011;31474;45.332;10.230;2024-03-23T02:27:48;4.07;;;3.63;;
45764;SDS011;31474;45.332;10.230;2024-03-23T02:30:14;5.13;;;4.32;;
45764;SDS011;31474;45.332;10.230;2024-03-23T02:32:40;4.38;;;3.95;;
45764;SDS011;31474;45.332;10.230;2024-03-23T02:35:06;4.90;;;4.40;;
45764;SDS011;31474;45.332;10.230;2024-03-23T02:37:31;5.15;;;4.65;;
45764;SDS011;31474;45.332;10.230;2024-03-23T02:39:58;5.32;;;4.82;;
45764;SDS011;31474;45.332;10.230;2024-03-23T02:42:23;4.75;;;4.35;;
45764;SDS011;31474;45.332;10.230;2024-03-23T02:44:49;6.38;;;4.90;;
45764;SDS011;31474;45.332;10.230;2024-03-23T02:47:14;4.75;;;4.25;;
45764;SDS011;31474;45.332;10.230;2024-03-23T02:49:40;4.53;;;4.13;;
45764;SDS011;31474;45.332;10.230;2024-03-23T02:52:05;6.55;;;4.28;;
45764;SDS011;31474;45.332;10.230;2024-03-23T02:54:31;5.25;;;3.95;;
45764;SDS011;31474;45.332;10.230;2024-03-23T02:56:57;5.32;;;4.63;;
45764;SDS011;31474;45.332;10.230;2024-03-23T02:59:22;4.80;;;4.30;;
45764;SDS011;31474;45.332;10.230;2024-03-23T03:01:48;6.30;;;4.55;;
45764;SDS011;31474;45.332;10.230;2024-03-23T03:04:13;4.97;;;4.28;;
45764;SDS011;31474;45.332;10.230;2024-03-23T03:06:39;5.35;;;4.80;;
45764;SDS011;31474;45.332;10.230;2024-03-23T03:09:06;5.53;;;4.60;;
45764;SDS011;31474;45.332;10.230;2024-03-23T03:11:31;5.13;;;4.63;;
45764;SDS011;31474;45.332;10.230;2024-03-23T03:13:57;7.03;;;5.82;;
45764;SDS011;31474;45.332;10.230;2024-03-23T03:16:25;4.55;;;3.97;;
45764;SDS011;31474;45.332;10.230;2024-03-23T03:18:51;5.70;;;4.97;;
45764;SDS011;31474;45.332;10.230;2024-03-23T03:21:17;5.22;;;4.70;;
45764;SDS011;31474;45.332;10.230;2024-03-23T03:23:44;5.05;;;4.55;;
45764;SDS011;31474;45.332;10.230;2024-03-23T03:26:09;5.07;;;4.57;;
45764;SDS011;31474;45.332;10.230;2024-03-23T03:28:35;4.90;;;4.45;;
45764;SDS011;31474;45.332;10.230;2024-03-23T03:31:01;5.13;;;4.63;;
45764;SDS011;31474;45.332;10.230;2024-03-23T03:33:27;5.40;;;4.57;;
45764;SDS011;31474;45.332;10.230;2024-03-23T03:35:53;4.97;;;4.47;;
45764;SDS011;31474;45.332;10.230;2024-03-23T03:38:19;7.70;;;4.63;;
45764;SDS011;31474;45.332;10.230;2024-03-23T03:40:44;5.07;;;4.55;;
45764;SDS011;31474;45.332;10.230;2024-03-23T03:43:10;5.57;;;4.40;;
45764;SDS011;31474;45.332;10.230;2024-03-23T03:45:36;5.25;;;4.32;;
45764;SDS011;31474;45.332;10.230;2024-03-23T03:48:02;4.97;;;4.47;;
45764;SDS011;31474;45.332;10.230;2024-03-23T03:50:27;4.80;;;4.40;;
45764;SDS011;31474;45.332;10.230;2024-03-23T03:52:53;5.50;;;4.85;;
45764;SDS011;31474;45.332;10.230;2024-03-23T03:55:19;5.53;;;5.03;;
45764;SDS011;31474;45.332;10.230;2024-03-23T03:57:44;5.22;;;4.72;;
45764;SDS011;31474;45.332;10.230;2024-03-23T04:00:10;4.43;;;4.03;;
45764;SDS011;31474;45.332;10.230;2024-03-23T04:02:39;4.50;;;4.10;;
45764;SDS011;31474;45.332;10.230;2024-03-23T04:05:05;5.13;;;4.63;;
45764;SDS011;31474;45.332;10.230;2024-03-23T04:07:31;4.78;;;4.28;;
45764;SDS011;31474;45.332;10.230;2024-03-23T04:09:57;4.82;;;4.43;;
45764;SDS011;31474;45.332;10.230;2024-03-23T04:12:23;4.97;;;4.47;;
45764;SDS011;31474;45.332;10.230;2024-03-23T04:14:48;5.15;;;4.65;;
45764;SDS011;31474;45.332;10.230;2024-03-23T04:17:14;5.10;;;4.60;;
45764;SDS011;31474;45.332;10.230;2024-03-23T04:19:40;4.93;;;4.43;;
45764;SDS011;31474;45.332;10.230;2024-03-23T04:22:06;5.35;;;4.85;;
45764;SDS011;31474;45.332;10.230;2024-03-23T04:24:31;6.05;;;5.53;;
45764;SDS011;31474;45.332;10.230;2024-03-23T04:26:57;5.38;;;4.88;;
45764;SDS011;31474;45.332;10.230;2024-03-23T04:29:23;5.53;;;4.47;;
45764;SDS011;31474;45.332;10.230;2024-03-23T04:31:48;5.45;;;4.88;;
45764;SDS011;31474;45.332;10.230;2024-03-23T04:34:14;4.70;;;4.20;;
45764;SDS011;31474;45.332;10.230;2024-03-23T04:36:39;5.15;;;4.65;;
45764;SDS011;31474;45.332;10.230;2024-03-23T04:39:05;5.30;;;4.80;;
45764;SDS011;31474;45.332;10.230;2024-03-23T04:41:33;5.75;;;4.65;;
45764;SDS011;31474;45.332;10.230;2024-03-23T04:43:59;4.85;;;4.43;;
45764;SDS011;31474;45.332;10.230;2024-03-23T04:46:25;5.30;;;4.80;;
45764;SDS011;31474;45.332;10.230;2024-03-23T04:48:51;5.95;;;4.25;;
45764;SDS011;31474;45.332;10.230;2024-03-23T04:51:20;5.20;;;4.70;;
45764;SDS011;31474;45.332;10.230;2024-03-23T04:53:46;4.60;;;4.18;;
45764;SDS011;31474;45.332;10.230;2024-03-23T04:56:13;5.30;;;4.38;;
45764;SDS011;31474;45.332;10.230;2024-03-23T04:58:39;4.63;;;4.22;;
45764;SDS011;31474;45.332;10.230;2024-03-23T05:01:05;5.22;;;4.72;;
45764;SDS011;31474;45.332;10.230;2024-03-23T05:03:30;5.65;;;4.75;;
45764;SDS011;31474;45.332;10.230;2024-03-23T05:05:56;5.80;;;5.18;;
45764;SDS011;31474;45.332;10.230;2024-03-23T05:08:22;5.07;;;4.47;;
45764;SDS011;31474;45.332;10.230;2024-03-23T05:10:47;5.80;;;4.70;;
45764;SDS011;31474;45.332;10.230;2024-03-23T05:13:13;5.00;;;4.50;;
45764;SDS011;31474;45.332;10.230;2024-03-23T05:15:38;4.35;;;3.90;;
45764;SDS011;31474;45.332;10.230;2024-03-23T05:18:04;4.68;;;4.18;;
45764;SDS011;31474;45.332;10.230;2024-03-23T05:20:30;5.40;;;4.90;;
45764;SDS011;31474;45.332;10.230;2024-03-23T05:22:56;4.82;;;4.28;;
45764;SDS011;31474;45.332;10.230;2024-03-23T05:25:22;7.75;;;6.85;;
45764;SDS011;31474;45.332;10.230;2024-03-23T05:27:47;7.30;;;6.10;;
45764;SDS011;31474;45.332;10.230;2024-03-23T05:30:13;5.32;;;4.82;;
45764;SDS011;31474;45.332;10.230;2024-03-23T05:32:39;5.85;;;5.35;;
45764;SDS011;31474;45.332;10.230;2024-03-23T05:35:09;10.57;;;7.57;;
45764;SDS011;31474;45.332;10.230;2024-03-23T05:37:34;7.00;;;6.30;;
45764;SDS011;31474;45.332;10.230;2024-03-23T05:40:00;7.95;;;5.85;;
45764;SDS011;31474;45.332;10.230;2024-03-23T05:42:26;7.00;;;6.30;;
45764;SDS011;31474;45.332;10.230;2024-03-23T05:44:52;8.95;;;5.65;;
45764;SDS011;31474;45.332;10.230;2024-03-23T05:47:17;6.95;;;5.80;;
45764;SDS011;31474;45.332;10.230;2024-03-23T05:49:43;6.05;;;5.45;;
45764;SDS011;31474;45.332;10.230;2024-03-23T05:52:11;9.50;;;6.60;;
45764;SDS011;31474;45.332;10.230;2024-03-23T05:54:36;8.30;;;6.20;;
45764;SDS011;31474;45.332;10.230;2024-03-23T05:57:02;6.38;;;5.78;;
45764;SDS011;31474;45.332;10.230;2024-03-23T05:59:28;9.55;;;6.45;;
45764;SDS011;31474;45.332;10.230;2024-03-23T06:01:54;7.43;;;5.75;;
45764;SDS011;31474;45.332;10.230;2024-03-23T06:04:20;8.23;;;6.38;;
45764;SDS011;31474;45.332;10.230;2024-03-23T06:06:46;8.10;;;5.75;;
45764;SDS011;31474;45.332;10.230;2024-03-23T06:09:12;6.25;;;5.65;;
45764;SDS011;31474;45.332;10.230;2024-03-23T06:11:37;6.57;;;5.97;;
45764;SDS011;31474;45.332;10.230;2024-03-23T06:14:03;8.32;;;5.95;;
45764;SDS011;31474;45.332;10.230;2024-03-23T06:16:29;6.05;;;5.55;;
45764;SDS011;31474;45.332;10.230;2024-03-23T06:18:55;6.53;;;5.85;;
45764;SDS011;31474;45.332;10.230;2024-03-23T06:21:21;6.85;;;5.15;;
45764;SDS011;31474;45.332;10.230;2024-03-23T06:23:51;6.90;;;6.03;;
45764;SDS011;31474;45.332;10.230;2024-03-23T06:26:20;8.68;;;6.40;;
45764;SDS011;31474;45.332;10.230;2024-03-23T06:28:46;7.25;;;6.55;;
45764;SDS011;31474;45.332;10.230;2024-03-23T06:31:13;7.65;;;6.43;;
45764;SDS011;31474;45.332;10.230;2024-03-23T06:33:39;9.07;;;6.45;;
45764;SDS011;31474;45.332;10.230;2024-03-23T06:36:10;6.63;;;5.70;;
45764;SDS011;31474;45.332;10.230;2024-03-23T06:38:37;6.80;;;5.55;;
45764;SDS011;31474;45.332;10.230;2024-03-23T06:41:03;5.97;;;5.38;;
45764;SDS011;31474;45.332;10.230;2024-03-23T06:43:29;6.25;;;5.65;;
45764;SDS011;31474;45.332;10.230;2024-03-23T06:45:55;5.97;;;5.38;;
45764;SDS011;31474;45.332;10.230;2024-03-23T06:48:21;5.70;;;5.20;;
45764;SDS011;31474;45.332;10.230;2024-03-23T06:50:47;8.00;;;5.47;;
45764;SDS011;31474;45.332;10.230;2024-03-23T06:53:13;6.00;;;5.40;;
45764;SDS011;31474;45.332;10.230;2024-03-23T06:55:39;5.75;;;5.25;;
45764;SDS011;31474;45.332;10.230;2024-03-23T06:58:05;7.28;;;6.28;;
45764;SDS011;31474;45.332;10.230;2024-03-23T07:00:31;6.55;;;5.03;;
45764;SDS011;31474;45.332;10.230;2024-03-23T07:02:57;6.10;;;5.57;;
45764;SDS011;31474;45.332;10.230;2024-03-23T07:05:23;5.95;;;5.43;;
45764;SDS011;31474;45.332;10.230;2024-03-23T07:07:49;7.10;;;5.30;;
45764;SDS011;31474;45.332;10.230;2024-03-23T07:10:15;5.97;;;5.38;;
45764;SDS011;31474;45.332;10.230;2024-03-23T07:12:40;7.57;;;5.40;;
45764;SDS011;31474;45.332;10.230;2024-03-23T07:15:06;5.85;;;5.25;;
45764;SDS011;31474;45.332;10.230;2024-03-23T07:17:33;6.88;;;5.82;;
45764;SDS011;31474;45.332;10.230;2024-03-23T07:20:00;8.13;;;5.70;;
45764;SDS011;31474;45.332;10.230;2024-03-23T07:22:28;5.25;;;4.75;;
45764;SDS011;31474;45.332;10.230;2024-03-23T07:24:59;5.78;;;5.18;;
45764;SDS011;31474;45.332;10.230;2024-03-23T07:27:26;6.07;;;4.85;;
45764;SDS011;31474;45.332;10.230;2024-03-23T07:29:51;5.63;;;5.10;;
45764;SDS011;31474;45.332;10.230;2024-03-23T07:32:17;6.90;;;5.07;;
45764;SDS011;31474;45.332;10.230;2024-03-23T07:34:43;6.10;;;4.95;;
45764;SDS011;31474;45.332;10.230;2024-03-23T07:37:09;4.93;;;4.45;;
45764;SDS011;31474;45.332;10.230;2024-03-23T07:39:35;5.97;;;5.10;;
45764;SDS011;31474;45.332;10.230;2024-03-23T07:42:01;6.45;;;5.18;;
45764;SDS011;31474;45.332;10.230;2024-03-23T07:44:27;5.63;;;5.00;;
45764;SDS011;31474;45.332;10.230;2024-03-23T07:46:53;5.93;;;5.32;;
45764;SDS011;31474;45.332;10.230;2024-03-23T07:49:18;5.32;;;4.82;;
45764;SDS011;31474;45.332;10.230;2024-03-23T07:51:44;5.55;;;5.03;;
45764;SDS011;31474;45.332;10.230;2024-03-23T07:54:09;6.25;;;5.45;;
45764;SDS011;31474;45.332;10.230;2024-03-23T07:56:35;6.53;;;4.80;;
45764;SDS011;31474;45.332;10.230;2024-03-23T07:59:01;7.10;;;5.10;;
45764;SDS011;31474;45.332;10.230;2024-03-23T08:01:28;5.85;;;4.70;;
45764;SDS011;31474;45.332;10.230;2024-03-23T08:03:54;5.60;;;4.43;;
45764;SDS011;31474;45.332;10.230;2024-03-23T08:06:20;4.97;;;4.32;;
45764;SDS011;31474;45.332;10.230;2024-03-23T08:08:47;6.10;;;5.10;;
45764;SDS011;31474;45.332;10.230;2024-03-23T08:11:16;5.53;;;5.03;;
45764;SDS011;31474;45.332;10.230;2024-03-23T08:13:42;6.10;;;5.50;;
45764;SDS011;31474;45.332;10.230;2024-03-23T08:16:10;4.80;;;4.30;;
45764;SDS011;31474;45.332;10.230;2024-03-23T08:18:36;6.78;;;4.90;;
45764;SDS011;31474;45.332;10.230;2024-03-23T08:21:05;5.72;;;5.13;;
45764;SDS011;31474;45.332;10.230;2024-03-23T08:23:31;5.78;;;5.28;;
45764;SDS011;31474;45.332;10.230;2024-03-23T08:26:03;5.28;;;4.78;;
45764;SDS011;31474;45.332;10.230;2024-03-23T08:28:30;4.93;;;4.43;;
45764;SDS011;31474;45.332;10.230;2024-03-23T08:30:55;5.30;;;4.80;;
45764;SDS011;31474;45.332;10.230;2024-03-23T08:33:22;5.38;;;4.88;;
45764;SDS011;31474;45.332;10.230;2024-03-23T08:36:01;6.35;;;5.18;;
45764;SDS011;31474;45.332;10.230;2024-03-23T08:38:28;4.60;;;4.07;;
45764;SDS011;31474;45.332;10.230;2024-03-23T08:41:00;5.05;;;4.60;;
45764;SDS011;31474;45.332;10.230;2024-03-23T08:43:40;4.70;;;4.25;;
45764;SDS011;31474;45.332;10.230;2024-03-23T08:46:07;5.65;;;5.00;;
45764;SDS011;31474;45.332;10.230;2024-03-23T08:48:34;4.68;;;4.18;;
45764;SDS011;31474;45.332;10.230;2024-03-23T08:53:30;5.43;;;4.57;;
45764;SDS011;31474;45.332;10.230;2024-03-23T08:55:59;5.63;;;4.20;;
45764;SDS011;31474;45.332;10.230;2024-03-23T08:58:28;5.25;;;4.75;;
45764;SDS011;31474;45.332;10.230;2024-03-23T09:00:55;4.38;;;3.95;;
45764;SDS011;31474;45.332;10.230;2024-03-23T09:03:28;5.10;;;4.60;;
45764;SDS011;31474;45.332;10.230;2024-03-23T09:05:53;4.82;;;4.43;;
45764;SDS011;31474;45.332;10.230;2024-03-23T09:08:20;5.38;;;4.63;;
45764;SDS011;31474;45.332;10.230;2024-03-23T09:10:46;5.20;;;4.70;;
45764;SDS011;31474;45.332;10.230;2024-03-23T09:13:13;4.85;;;4.35;;
45764;SDS011;31474;45.332;10.230;2024-03-23T09:15:45;4.97;;;4.47;;
45764;SDS011;31474;45.332;10.230;2024-03-23T09:18:12;5.07;;;4.57;;
45764;SDS011;31474;45.332;10.230;2024-03-23T09:20:37;5.18;;;4.68;;
45764;SDS011;31474;45.332;10.230;2024-03-23T09:23:03;4.63;;;4.20;;
45764;SDS011;31474;45.332;10.230;2024-03-23T09:25:29;4.90;;;4.40;;
45764;SDS011;31474;45.332;10.230;2024-03-23T09:27:54;5.07;;;4.57;;
45764;SDS011;31474;45.332;10.230;2024-03-23T09:30:20;4.80;;;4.30;;
45764;SDS011;31474;45.332;10.230;2024-03-23T09:32:46;5.13;;;4.10;;
45764;SDS011;31474;45.332;10.230;2024-03-23T09:35:11;5.60;;;5.10;;
45764;SDS011;31474;45.332;10.230;2024-03-23T09:37:40;4.63;;;4.22;;
45764;SDS011;31474;45.332;10.230;2024-03-23T09:40:14;4.50;;;4.10;;
45764;SDS011;31474;45.332;10.230;2024-03-23T09:42:40;5.30;;;4.68;;
45764;SDS011;31474;45.332;10.230;2024-03-23T09:45:16;4.65;;;4.20;;
45764;SDS011;31474;45.332;10.230;2024-03-23T09:47:45;4.75;;;4.35;;
45764;SDS011;31474;45.332;10.230;2024-03-23T09:50:12;4.80;;;4.15;;
45764;SDS011;31474;45.332;10.230;2024-03-23T09:52:39;4.80;;;4.28;;
45764;SDS011;31474;45.332;10.230;2024-03-23T09:55:06;4.97;;;4.57;;
45764;SDS011;31474;45.332;10.230;2024-03-23T09:57:33;4.68;;;4.20;;
45764;SDS011;31474;45.332;10.230;2024-03-23T09:59:59;6.53;;;5.93;;
45764;SDS011;31474;45.332;10.230;2024-03-23T10:02:25;7.05;;;5.60;;
45764;SDS011;31474;45.332;10.230;2024-03-23T10:04:51;6.28;;;5.55;;
45764;SDS011;31474;45.332;10.230;2024-03-23T10:07:20;5.95;;;4.95;;
45764;SDS011;31474;45.332;10.230;2024-03-23T10:09:47;7.38;;;6.68;;
45764;SDS011;31474;45.332;10.230;2024-03-23T10:12:13;8.05;;;7.25;;
45764;SDS011;31474;45.332;10.230;2024-03-23T10:14:42;8.82;;;6.93;;
45764;SDS011;31474;45.332;10.230;2024-03-23T10:17:17;8.95;;;7.47;;
45764;SDS011;31474;45.332;10.230;2024-03-23T10:19:44;9.27;;;8.35;;
45764;SDS011;31474;45.332;10.230;2024-03-23T10:22:14;8.68;;;7.50;;
45764;SDS011;31474;45.332;10.230;2024-03-23T10:24:44;7.30;;;6.47;;
45764;SDS011;31474;45.332;10.230;2024-03-23T10:27:15;7.00;;;6.30;;
45764;SDS011;31474;45.332;10.230;2024-03-23T10:29:42;9.70;;;8.70;;
45764;SDS011;31474;45.332;10.230;2024-03-23T10:32:12;19.55;;;14.82;;
45764;SDS011;31474;45.332;10.230;2024-03-23T10:37:08;29.15;;;21.85;;
45764;SDS011;31474;45.332;10.230;2024-03-23T10:39:38;23.80;;;20.05;;
45764;SDS011;31474;45.332;10.230;2024-03-23T10:42:08;25.48;;;21.00;;
45764;SDS011;31474;45.332;10.230;2024-03-23T10:44:37;27.33;;;20.08;;
45764;SDS011;31474;45.332;10.230;2024-03-23T10:47:03;27.33;;;21.00;;
45764;SDS011;31474;45.332;10.230;2024-03-23T10:49:33;23.75;;;18.98;;
45764;SDS011;31474;45.332;10.230;2024-03-23T10:52:01;24.83;;;19.67;;
45764;SDS011;31474;45.332;10.230;2024-03-23T10:54:27;24.77;;;19.75;;
45764;SDS011;31474;45.332;10.230;2024-03-23T10:57:17;21.63;;;18.50;;
45764;SDS011;31474;45.332;10.230;2024-03-23T10:59:42;22.20;;;18.20;;
45764;SDS011;31474;45.332;10.230;2024-03-23T11:02:18;22.08;;;18.33;;
45764;SDS011;31474;45.332;10.230;2024-03-23T11:04:44;21.13;;;18.17;;
45764;SDS011;31474;45.332;10.230;2024-03-23T11:07:28;20.15;;;18.08;;
45764;SDS011;31474;45.332;10.230;2024-03-23T11:09:56;22.45;;;20.08;;
45764;SDS011;31474;45.332;10.230;2024-03-23T11:17:26;26.70;;;20.40;;
45764;SDS011;31474;45.332;10.230;2024-03-23T11:20:01;28.13;;;21.77;;
45764;SDS011;31474;45.332;10.230;2024-03-23T11:25:21;32.22;;;22.83;;
45764;SDS011;31474;45.332;10.230;2024-03-23T11:27:58;25.55;;;21.38;;
45764;SDS011;31474;45.332;10.230;2024-03-23T11:30:36;24.92;;;22.23;;
45764;SDS011;31474;45.332;10.230;2024-03-23T11:33:05;26.38;;;22.48;;
45764;SDS011;31474;45.332;10.230;2024-03-23T11:35:31;26.63;;;21.45;;
45764;SDS011;31474;45.332;10.230;2024-03-23T11:38:11;23.75;;;21.10;;
45764;SDS011;31474;45.332;10.230;2024-03-23T11:40:46;26.70;;;21.00;;
45764;SDS011;31474;45.332;10.230;2024-03-23T11:43:16;23.33;;;20.75;;
45764;SDS011;31474;45.332;10.230;2024-03-23T11:45:43;23.67;;;20.92;;
45764;SDS011;31474;45.332;10.230;2024-03-23T11:48:11;25.85;;;20.60;;
45764;SDS011;31474;45.332;10.230;2024-03-23T11:50:40;27.40;;;21.60;;
45764;SDS011;31474;45.332;10.230;2024-03-23T11:53:24;26.52;;;21.08;;
45764;SDS011;31474;45.332;10.230;2024-03-23T11:55:56;24.80;;;20.02;;
45764;SDS011;31474;45.332;10.230;2024-03-23T11:58:23;22.35;;;19.80;;
45764;SDS011;31474;45.332;10.230;2024-03-23T12:00:59;22.52;;;19.80;;
45764;SDS011;31474;45.332;10.230;2024-03-23T12:03:28;22.40;;;19.90;;
45764;SDS011;31474;45.332;10.230;2024-03-23T12:05:55;23.20;;;20.65;;
45764;SDS011;31474;45.332;10.230;2024-03-23T12:08:34;23.80;;;20.42;;
45764;SDS011;31474;45.332;10.230;2024-03-23T12:11:21;22.80;;;19.80;;
45764;SDS011;31474;45.332;10.230;2024-03-23T12:13:47;22.63;;;19.70;;
45764;SDS011;31474;45.332;10.230;2024-03-23T12:16:15;26.58;;;20.00;;
45764;SDS011;31474;45.332;10.230;2024-03-23T12:18:45;27.05;;;21.30;;
45764;SDS011;31474;45.332;10.230;2024-03-23T12:21:12;26.75;;;21.73;;
45764;SDS011;31474;45.332;10.230;2024-03-23T12:23:39;27.23;;;22.75;;
45764;SDS011;31474;45.332;10.230;2024-03-23T12:26:05;25.08;;;21.63;;
45764;SDS011;31474;45.332;10.230;2024-03-23T12:28:31;28.60;;;22.35;;
45764;SDS011;31474;45.332;10.230;2024-03-23T12:30:57;26.38;;;21.75;;
45764;SDS011;31474;45.332;10.230;2024-03-23T12:33:23;24.77;;;21.30;;
45764;SDS011;31474;45.332;10.230;2024-03-23T12:35:49;25.40;;;21.55;;
45764;SDS011;31474;45.332;10.230;2024-03-23T12:38:15;25.23;;;20.52;;
45764;SDS011;31474;45.332;10.230;2024-03-23T12:40:41;25.80;;;21.33;;
45764;SDS011;31474;45.332;10.230;2024-03-23T12:43:07;23.73;;;20.77;;
45764;SDS011;31474;45.332;10.230;2024-03-23T12:45:32;35.80;;;25.10;;
45764;SDS011;31474;45.332;10.230;2024-03-23T12:47:58;23.75;;;20.15;;
45764;SDS011;31474;45.332;10.230;2024-03-23T12:50:24;26.25;;;19.15;;
45764;SDS011;31474;45.332;10.230;2024-03-23T12:52:49;21.80;;;18.27;;
45764;SDS011;31474;45.332;10.230;2024-03-23T12:55:15;23.33;;;19.35;;
45764;SDS011;31474;45.332;10.230;2024-03-23T12:57:41;22.98;;;19.42;;
45764;SDS011;31474;45.332;10.230;2024-03-23T13:00:06;27.85;;;20.50;;
45764;SDS011;31474;45.332;10.230;2024-03-23T13:02:36;23.85;;;19.70;;
45764;SDS011;31474;45.332;10.230;2024-03-23T13:05:03;24.38;;;19.08;;
45764;SDS011;31474;45.332;10.230;2024-03-23T13:07:29;25.35;;;18.73;;
45764;SDS011;31474;45.332;10.230;2024-03-23T13:09:55;19.48;;;17.45;;
45764;SDS011;31474;45.332;10.230;2024-03-23T13:12:21;19.45;;;17.05;;
45764;SDS011;31474;45.332;10.230;2024-03-23T13:14:48;20.23;;;18.02;;
45764;SDS011;31474;45.332;10.230;2024-03-23T13:17:14;20.58;;;18.40;;
45764;SDS011;31474;45.332;10.230;2024-03-23T13:19:40;20.05;;;17.05;;
45764;SDS011;31474;45.332;10.230;2024-03-23T13:22:06;20.02;;;16.63;;
45764;SDS011;31474;45.332;10.230;2024-03-23T13:24:32;21.30;;;17.35;;
45764;SDS011;31474;45.332;10.230;2024-03-23T13:26:57;20.73;;;16.25;;
45764;SDS011;31474;45.332;10.230;2024-03-23T13:29:23;24.80;;;16.75;;
45764;SDS011;31474;45.332;10.230;2024-03-23T13:31:50;20.02;;;16.80;;
45764;SDS011;31474;45.332;10.230;2024-03-23T13:34:17;18.65;;;16.67;;
45764;SDS011;31474;45.332;10.230;2024-03-23T13:36:43;19.70;;;16.02;;
45764;SDS011;31474;45.332;10.230;2024-03-23T13:39:09;18.95;;;15.85;;
45764;SDS011;31474;45.332;10.230;2024-03-23T13:41:39;16.88;;;15.05;;
45764;SDS011;31474;45.332;10.230;2024-03-23T13:44:09;19.30;;;14.13;;
45764;SDS011;31474;45.332;10.230;2024-03-23T13:46:36;17.38;;;15.43;;
45764;SDS011;31474;45.332;10.230;2024-03-23T13:49:03;18.23;;;14.82;;
45764;SDS011;31474;45.332;10.230;2024-03-23T13:51:29;18.55;;;13.77;;
45764;SDS011;31474;45.332;10.230;2024-03-23T13:53:54;21.33;;;15.27;;
45764;SDS011;31474;45.332;10.230;2024-03-23T13:56:29;18.67;;;14.60;;
45764;SDS011;31474;45.332;10.230;2024-03-23T13:58:55;18.35;;;15.18;;
45764;SDS011;31474;45.332;10.230;2024-03-23T14:01:21;17.48;;;13.98;;
45764;SDS011;31474;45.332;10.230;2024-03-23T14:03:47;18.70;;;14.18;;
45764;SDS011;31474;45.332;10.230;2024-03-23T14:06:13;15.15;;;13.15;;
45764;SDS011;31474;45.332;10.230;2024-03-23T14:08:39;16.27;;;13.57;;
45764;SDS011;31474;45.332;10.230;2024-03-23T14:11:08;17.70;;;13.50;;
45764;SDS011;31474;45.332;10.230;2024-03-23T14:13:34;18.52;;;13.98;;
45764;SDS011;31474;45.332;10.230;2024-03-23T14:16:00;15.90;;;13.43;;
45764;SDS011;31474;45.332;10.230;2024-03-23T14:18:27;14.50;;;12.65;;
45764;SDS011;31474;45.332;10.230;2024-03-23T14:20:56;16.42;;;12.70;;
45764;SDS011;31474;45.332;10.230;2024-03-23T14:23:24;13.52;;;12.13;;
45764;SDS011;31474;45.332;10.230;2024-03-23T14:25:52;18.30;;;12.80;;
45764;SDS011;31474;45.332;10.230;2024-03-23T14:28:21;20.88;;;13.88;;
45764;SDS011;31474;45.332;10.230;2024-03-23T14:30:48;18.95;;;16.52;;
45764;SDS011;31474;45.332;10.230;2024-03-23T14:33:15;25.92;;;23.00;;
45764;SDS011;31474;45.332;10.230;2024-03-23T14:35:41;38.95;;;34.55;;
45764;SDS011;31474;45.332;10.230;2024-03-23T14:38:06;57.47;;;49.90;;
45764;SDS011;31474;45.332;10.230;2024-03-23T14:40:32;83.55;;;70.85;;
45764;SDS011;31474;45.332;10.230;2024-03-23T14:42:58;76.85;;;68.45;;
45764;SDS011;31474;45.332;10.230;2024-03-23T14:45:24;74.00;;;65.90;;
45764;SDS011;31474;45.332;10.230;2024-03-23T14:47:52;73.10;;;63.95;;
45764;SDS011;31474;45.332;10.230;2024-03-23T14:50:18;57.03;;;50.92;;
45764;SDS011;31474;45.332;10.230;2024-03-23T14:52:44;60.97;;;54.28;;
45764;SDS011;31474;45.332;10.230;2024-03-23T14:55:11;55.42;;;49.55;;
45764;SDS011;31474;45.332;10.230;2024-03-23T14:57:37;51.95;;;46.35;;
45764;SDS011;31474;45.332;10.230;2024-03-23T15:00:05;49.60;;;44.13;;
45764;SDS011;31474;45.332;10.230;2024-03-23T15:02:32;48.25;;;43.00;;
45764;SDS011;31474;45.332;10.230;2024-03-23T15:04:59;44.33;;;39.15;;
45764;SDS011;31474;45.332;10.230;2024-03-23T15:07:25;45.15;;;38.97;;
45764;SDS011;31474;45.332;10.230;2024-03-23T15:09:50;42.72;;;38.15;;
45764;SDS011;31474;45.332;10.230;2024-03-23T15:12:16;34.55;;;30.70;;
45764;SDS011;31474;45.332;10.230;2024-03-23T15:14:42;34.45;;;28.77;;
45764;SDS011;31474;45.332;10.230;2024-03-23T15:17:07;28.50;;;25.30;;
45764;SDS011;31474;45.332;10.230;2024-03-23T15:19:34;32.45;;;25.77;;
45764;SDS011;31474;45.332;10.230;2024-03-23T15:21:59;24.45;;;21.75;;
45764;SDS011;31474;45.332;10.230;2024-03-23T15:24:25;21.60;;;18.30;;
45764;SDS011;31474;45.332;10.230;2024-03-23T15:26:51;18.98;;;16.98;;
45764;SDS011;31474;45.332;10.230;2024-03-23T15:29:17;18.05;;;16.15;;